createdAt,value
2023-05-17T00:02:04.576Z,96900.66
2023-05-17T00:04:34.414Z,96900.28
2023-05-17T00:07:02.795Z,96906.38
2023-05-17T00:09:31.159Z,96902.47
2023-05-17T00:12:02.100Z,96913.84
2023-05-17T00:14:30.438Z,96904.75
2023-05-17T00:16:58.597Z,96905.66
2023-05-17T00:19:26.983Z,96907.34
2023-05-17T00:21:56.645Z,96908.88
2023-05-17T00:24:24.947Z,96898.31
2023-05-17T00:26:53.299Z,96899.94
2023-05-17T00:29:21.634Z,96900.94
2023-05-17T00:31:49.988Z,96886.31
2023-05-17T00:34:18.338Z,96903.44
2023-05-17T00:36:46.689Z,96910.50
2023-05-17T00:39:16.354Z,96907.94
2023-05-17T00:41:45.229Z,96913.44
2023-05-17T00:44:13.554Z,96908.41
2023-05-17T00:46:42.018Z,96913.44
2023-05-17T00:49:10.409Z,96886.16
2023-05-17T00:51:39.133Z,96912.59
2023-05-17T00:54:07.910Z,96904.06
2023-05-17T00:56:37.667Z,96905.50
2023-05-17T00:59:07.962Z,96900.16
2023-05-17T01:01:38.389Z,96896.81
2023-05-17T01:04:07.555Z,96903.44
2023-05-17T01:06:37.212Z,96902.78
2023-05-17T01:09:06.280Z,96882.84
2023-05-17T01:11:44.072Z,96893.06
2023-05-17T01:14:24.026Z,96895.59
2023-05-17T01:16:59.157Z,96893.16
2023-05-17T01:19:51.793Z,96897.28
2023-05-17T01:22:33.231Z,96899.06
2023-05-17T01:25:12.655Z,96907.34
2023-05-17T01:27:44.790Z,96902.25
2023-05-17T01:30:15.368Z,96896.22
2023-05-17T01:32:44.978Z,96900.56
2023-05-17T01:35:13.769Z,96897.22
2023-05-17T01:37:42.117Z,96903.72
2023-05-17T01:40:11.947Z,96911.56
2023-05-17T01:42:44.700Z,96904.56
2023-05-17T01:45:19.670Z,96906.25
2023-05-17T01:47:54.736Z,96906.25
2023-05-17T01:50:26.441Z,96897.47
2023-05-17T01:52:56.428Z,96871.09
2023-05-17T01:55:33.442Z,96911.31
2023-05-17T01:58:07.858Z,96904.03
2023-05-17T02:00:37.791Z,96872.75
2023-05-17T02:03:06.189Z,96914.38
2023-05-17T02:05:34.421Z,96896.94
2023-05-17T02:08:02.708Z,96895.81
2023-05-17T02:10:31.085Z,96916.34
2023-05-17T02:12:59.359Z,96913.81
2023-05-17T02:15:29.222Z,96919.16
2023-05-17T02:17:57.644Z,96893.59
2023-05-17T02:20:26.481Z,96902.66
2023-05-17T02:22:55.189Z,96879.03
2023-05-17T02:25:23.432Z,96914.91
2023-05-17T02:27:51.720Z,96856.28
2023-05-17T02:30:22.400Z,96915.44
2023-05-17T02:32:53.414Z,96837.88
2023-05-17T02:35:21.968Z,96932.69
2023-05-17T02:37:50.340Z,96930.78
2023-05-17T02:40:19.037Z,96931.63
2023-05-17T02:42:47.360Z,96934.06
2023-05-17T02:45:15.660Z,96935.66
2023-05-17T02:47:43.951Z,96937.69
2023-05-17T02:50:13.870Z,96949.00
2023-05-17T02:52:42.198Z,96946.31
2023-05-17T02:55:11.362Z,96948.94
2023-05-17T02:57:39.618Z,96945.69
2023-05-17T03:00:10.624Z,96948.66
2023-05-17T03:02:38.975Z,96945.41
2023-05-17T03:05:08.443Z,96947.22
2023-05-17T03:07:38.245Z,96945.47
2023-05-17T03:10:07.218Z,96936.66
2023-05-17T03:12:35.557Z,96940.09
2023-05-17T03:15:04.411Z,96923.09
2023-05-17T03:17:32.879Z,96938.44
2023-05-17T03:20:01.376Z,96936.72
2023-05-17T03:22:29.703Z,96937.19
2023-05-17T03:24:59.394Z,96947.78
2023-05-17T03:27:27.621Z,96894.50
2023-05-17T03:29:55.969Z,96948.31
2023-05-17T03:32:24.800Z,96939.91
2023-05-17T03:34:53.151Z,96955.19
2023-05-17T03:37:21.416Z,96944.81
2023-05-17T03:39:49.770Z,96963.91
2023-05-17T03:42:19.497Z,96958.59
2023-05-17T03:44:47.808Z,96962.22
2023-05-17T03:47:16.122Z,96928.22
2023-05-17T03:49:44.725Z,96980.91
2023-05-17T03:52:12.995Z,96979.19
2023-05-17T03:54:41.229Z,96988.97
2023-05-17T03:57:09.553Z,96997.63
2023-05-17T03:59:39.229Z,97007.66
2023-05-17T04:02:08.134Z,97008.66
2023-05-17T04:04:36.398Z,97010.69
2023-05-17T04:07:04.674Z,97015.38
2023-05-17T04:09:35.208Z,97028.38
2023-05-17T04:12:03.448Z,97039.59
2023-05-17T04:14:31.991Z,97037.75
2023-05-17T04:17:01.736Z,97041.97
2023-05-17T04:19:30.311Z,97035.94
2023-05-17T04:21:58.610Z,97046.28
2023-05-17T04:24:26.982Z,96975.38
2023-05-17T04:26:55.226Z,97063.63
2023-05-17T04:29:23.650Z,97056.53
2023-05-17T04:31:51.980Z,97070.44
2023-05-17T04:34:22.512Z,97073.88
2023-05-17T04:36:50.768Z,97085.25
2023-05-17T04:39:19.091Z,97089.38
2023-05-17T04:41:47.577Z,97087.44
2023-05-17T04:44:15.883Z,97084.75
2023-05-17T04:46:45.613Z,97090.03
2023-05-17T04:49:14.437Z,97092.28
2023-05-17T04:51:44.144Z,97075.03
2023-05-17T04:54:12.529Z,97096.44
2023-05-17T04:56:40.803Z,97108.56
2023-05-17T04:59:09.077Z,97105.84
2023-05-17T05:01:37.607Z,97098.63
2023-05-17T05:04:07.368Z,97063.19
2023-05-17T05:06:35.765Z,97101.31
2023-05-17T05:09:05.704Z,97102.88
2023-05-17T05:11:33.981Z,97086.53
2023-05-17T05:14:02.342Z,97095.91
2023-05-17T05:16:30.604Z,97090.38
2023-05-17T05:18:59.220Z,97078.22
2023-05-17T05:21:27.659Z,97079.47
2023-05-17T05:23:55.938Z,97070.47
2023-05-17T05:26:25.625Z,97077.94
2023-05-17T05:28:53.883Z,97053.72
2023-05-17T05:31:22.125Z,97065.25
2023-05-17T05:33:50.526Z,97083.66
2023-05-17T05:36:19.018Z,97090.41
2023-05-17T05:38:47.753Z,97090.88
2023-05-17T05:41:16.031Z,97099.47
2023-05-17T05:43:45.768Z,97108.22
2023-05-17T05:46:14.083Z,97102.03
2023-05-17T05:48:42.428Z,97113.41
2023-05-17T05:51:11.102Z,97068.22
2023-05-17T05:53:39.919Z,97108.41
2023-05-17T05:56:09.791Z,97117.50
2023-05-17T05:58:38.370Z,97108.63
2023-05-17T06:01:08.341Z,97117.19
2023-05-17T06:03:36.610Z,97116.06
2023-05-17T06:06:05.224Z,97130.91
2023-05-17T06:08:33.576Z,97078.97
2023-05-17T06:11:01.903Z,97132.66
2023-05-17T06:13:30.149Z,97142.09
2023-05-17T06:15:59.762Z,97143.41
2023-05-17T06:18:29.485Z,97142.31
2023-05-17T06:20:57.836Z,97149.13
2023-05-17T06:23:26.255Z,97150.91
2023-05-17T06:25:54.515Z,97153.56
2023-05-17T06:28:22.776Z,97169.06
2023-05-17T06:30:51.656Z,97166.47
2023-05-17T06:33:20.004Z,97191.44
2023-05-17T06:35:57.213Z,97188.81
2023-05-17T06:38:26.434Z,97185.38
2023-05-17T06:40:57.723Z,97204.94
2023-05-17T06:43:26.197Z,97210.22
2023-05-17T06:45:54.530Z,97212.81
2023-05-17T06:48:23.085Z,97227.75
2023-05-17T06:50:52.951Z,97210.44
2023-05-17T06:53:21.239Z,97201.84
2023-05-17T06:55:49.616Z,97217.25
2023-05-17T06:58:18.009Z,97168.63
2023-05-17T07:00:46.440Z,97224.88
2023-05-17T07:03:14.859Z,97231.94
2023-05-17T07:05:43.169Z,97231.94
2023-05-17T07:08:12.999Z,97240.25
2023-05-17T07:10:41.272Z,97233.63
2023-05-17T07:13:09.578Z,97214.59
2023-05-17T07:15:37.948Z,97242.34
2023-05-17T07:18:06.374Z,97250.91
2023-05-17T07:20:34.862Z,97261.81
2023-05-17T07:23:03.643Z,97245.88
2023-05-17T07:25:33.453Z,97194.66
2023-05-17T07:28:01.939Z,97201.75
2023-05-17T07:30:30.287Z,97260.50
2023-05-17T07:32:59.733Z,97250.13
2023-05-17T07:35:28.384Z,97255.97
2023-05-17T07:37:56.826Z,97252.97
2023-05-17T07:40:25.272Z,97253.63
2023-05-17T07:42:55.108Z,97255.25
2023-05-17T07:45:23.411Z,97254.47
2023-05-17T07:47:51.694Z,97262.00
2023-05-17T07:50:20.103Z,97265.19
2023-05-17T07:52:48.906Z,97255.97
2023-05-17T07:55:17.387Z,97260.00
2023-05-17T07:57:47.550Z,97248.78
2023-05-17T08:00:19.499Z,97268.69
2023-05-17T08:02:47.783Z,97269.91
2023-05-17T08:05:16.289Z,97267.13
2023-05-17T08:07:44.624Z,97272.19
2023-05-17T08:10:13.042Z,97276.28
2023-05-17T08:12:41.579Z,97284.16
2023-05-17T08:15:10.417Z,97289.25
2023-05-17T08:17:40.165Z,97288.19
2023-05-17T08:20:10.092Z,97287.38
2023-05-17T08:22:38.460Z,97274.34
2023-05-17T08:25:07.842Z,97311.38
2023-05-17T08:27:36.125Z,97309.88
2023-05-17T08:30:09.020Z,97313.22
2023-05-17T08:32:41.330Z,97311.47
2023-05-17T08:35:09.854Z,97326.09
2023-05-17T08:37:38.260Z,97319.56
2023-05-17T08:40:08.671Z,97324.34
2023-05-17T08:42:38.455Z,97313.94
2023-05-17T08:45:08.799Z,97326.97
2023-05-17T08:47:38.106Z,97324.63
2023-05-17T08:50:08.602Z,97155.94
2023-05-17T08:52:38.906Z,97320.81
2023-05-17T08:55:09.306Z,97335.44
2023-05-17T08:57:38.063Z,97322.16
2023-05-17T09:00:12.988Z,97338.28
2023-05-17T09:02:42.362Z,97329.44
2023-05-17T09:05:14.161Z,97331.44
2023-05-17T09:07:43.109Z,97330.78
2023-05-17T09:10:13.737Z,97333.66
2023-05-17T09:12:42.534Z,97330.88
2023-05-17T09:15:16.392Z,97331.03
2023-05-17T09:17:45.463Z,97335.50
2023-05-17T09:20:24.476Z,97327.88
2023-05-17T09:22:52.945Z,97286.59
2023-05-17T09:25:21.500Z,97323.25
2023-05-17T09:27:49.745Z,97332.09
2023-05-17T09:30:18.178Z,97329.19
2023-05-17T09:35:16.894Z,97295.50
2023-05-17T09:37:47.335Z,97340.16
2023-05-17T09:40:24.730Z,97301.53
2023-05-17T09:42:53.226Z,97335.00
2023-05-17T09:45:25.102Z,97338.97
2023-05-17T09:47:53.705Z,97352.03
2023-05-17T09:50:26.116Z,97352.13
2023-05-17T09:52:54.667Z,97357.94
2023-05-17T09:55:28.312Z,97359.66
2023-05-17T09:58:04.748Z,97351.03
2023-05-17T10:00:34.132Z,97360.50
2023-05-17T10:03:04.368Z,97359.94
2023-05-17T10:05:34.306Z,97364.19
2023-05-17T10:08:02.899Z,97345.06
2023-05-17T10:10:32.786Z,97371.03
2023-05-17T10:13:02.435Z,97371.41
2023-05-17T10:15:31.321Z,97373.75
2023-05-17T10:18:00.982Z,97379.53
2023-05-17T10:20:30.139Z,97380.88
2023-05-17T10:23:00.939Z,97380.53
2023-05-17T10:25:29.920Z,97382.44
2023-05-17T10:27:58.596Z,97378.75
2023-05-17T10:30:28.159Z,97325.13
2023-05-17T10:32:57.571Z,97392.22
2023-05-17T10:35:26.565Z,97381.44
2023-05-17T10:37:55.106Z,97387.91
2023-05-17T10:40:25.099Z,97391.41
2023-05-17T10:42:55.114Z,97392.41
2023-05-17T10:45:25.787Z,97381.03
2023-05-17T10:47:54.610Z,97399.84
2023-05-17T10:50:24.452Z,97401.19
2023-05-17T10:52:53.882Z,97403.69
2023-05-17T10:55:22.665Z,97403.16
2023-05-17T10:58:20.877Z,97410.28
2023-05-17T11:00:53.176Z,97407.38
2023-05-17T11:03:23.205Z,97422.69
2023-05-17T11:06:24.507Z,97416.56
2023-05-17T11:09:10.339Z,97412.63
2023-05-17T11:11:38.650Z,97423.28
2023-05-17T11:14:12.018Z,97427.97
2023-05-17T11:16:40.239Z,97429.72
2023-05-17T11:19:10.073Z,97427.00
2023-05-17T11:21:47.522Z,97382.59
2023-05-17T11:24:22.341Z,97435.00
2023-05-17T11:26:51.978Z,97422.97
2023-05-17T11:29:22.103Z,97415.31
2023-05-17T11:31:53.679Z,97393.78
2023-05-17T11:34:25.786Z,97435.09
2023-05-17T11:36:55.297Z,97450.19
2023-05-17T11:39:25.146Z,97471.53
2023-05-17T11:41:54.338Z,97464.41
2023-05-17T11:44:30.953Z,97461.13
2023-05-17T11:47:04.096Z,97461.41
2023-05-17T11:49:36.449Z,97464.00
2023-05-17T11:52:06.292Z,97481.03
2023-05-17T11:54:35.052Z,97479.31
2023-05-17T11:57:05.033Z,97485.25
2023-05-17T11:59:40.734Z,97480.91
2023-05-17T12:02:09.229Z,97471.84
2023-05-17T12:04:38.923Z,97500.63
2023-05-17T12:07:09.698Z,97483.91
2023-05-17T12:09:38.545Z,97505.19
2023-05-17T12:12:08.818Z,97510.72
2023-05-17T12:14:37.258Z,97507.63
2023-05-17T12:17:10.479Z,97506.41
2023-05-17T12:19:38.994Z,97516.38
2023-05-17T12:22:09.222Z,97524.00
2023-05-17T12:24:41.389Z,97529.28
2023-05-17T12:27:10.332Z,97531.34
2023-05-17T12:29:40.436Z,97516.38
2023-05-17T12:32:11.751Z,97537.00
2023-05-17T12:34:40.955Z,97548.78
2023-05-17T12:37:11.161Z,97543.59
2023-05-17T12:39:39.912Z,97560.28
2023-05-17T12:42:10.051Z,97553.31
2023-05-17T12:44:38.375Z,97554.97
2023-05-17T12:47:06.893Z,97575.88
2023-05-17T12:49:41.338Z,97570.63
2023-05-17T12:52:09.527Z,97584.66
2023-05-17T12:54:38.928Z,97590.09
2023-05-17T12:57:16.153Z,97588.28
2023-05-17T12:59:49.239Z,97559.84
2023-05-17T13:02:18.551Z,97593.34
2023-05-17T13:04:48.351Z,97588.63
2023-05-17T13:07:24.191Z,97596.63
2023-05-17T13:09:52.681Z,97600.84
2023-05-17T13:12:22.406Z,97579.34
2023-05-17T13:14:53.394Z,97605.25
2023-05-17T13:17:26.437Z,97602.38
2023-05-17T13:19:58.205Z,97609.53
2023-05-17T13:22:27.165Z,97607.28
2023-05-17T13:24:56.085Z,97615.59
2023-05-17T13:27:24.385Z,97613.38
2023-05-17T13:29:52.796Z,97553.06
2023-05-17T13:32:22.597Z,97603.66
2023-05-17T13:34:51.003Z,97608.81
2023-05-17T13:37:21.375Z,97617.38
2023-05-17T13:39:49.709Z,97610.53
2023-05-17T13:42:18.138Z,97612.22
2023-05-17T13:44:46.403Z,97617.44
2023-05-17T13:47:14.635Z,97611.47
2023-05-17T13:49:43.360Z,97604.69
2023-05-17T13:52:13.466Z,97616.63
2023-05-17T13:54:43.068Z,97625.63
2023-05-17T13:57:11.377Z,97606.91
2023-05-17T13:59:39.794Z,97634.50
2023-05-17T14:02:08.188Z,97640.53
2023-05-17T14:04:36.403Z,97631.03
2023-05-17T14:07:05.283Z,97633.16
2023-05-17T14:09:34.762Z,97591.13
2023-05-17T14:12:04.714Z,97628.38
2023-05-17T14:14:32.988Z,97635.34
2023-05-17T14:17:02.015Z,97618.69
2023-05-17T14:19:30.573Z,97635.09
2023-05-17T14:21:59.243Z,97623.13
2023-05-17T14:24:27.509Z,97630.69
2023-05-17T14:26:56.465Z,97598.00
2023-05-17T14:29:26.269Z,97628.69
2023-05-17T14:31:54.484Z,97621.91
2023-05-17T14:34:22.795Z,97620.13
2023-05-17T14:36:51.148Z,97644.84
2023-05-17T14:39:19.372Z,97631.56
2023-05-17T14:41:47.736Z,97623.78
2023-05-17T14:44:16.035Z,97605.31
2023-05-17T14:46:45.626Z,97622.69
2023-05-17T14:49:14.120Z,97619.25
2023-05-17T14:51:42.489Z,97616.69
2023-05-17T14:54:13.374Z,97616.47
2023-05-17T14:56:42.482Z,97625.03
2023-05-17T14:59:10.916Z,97613.13
2023-05-17T15:01:39.225Z,97629.94
2023-05-17T15:04:09.747Z,97615.03
2023-05-17T15:06:38.809Z,97615.75
2023-05-17T15:09:07.021Z,97619.38
2023-05-17T15:11:35.324Z,97618.41
2023-05-17T15:14:03.593Z,97585.00
2023-05-17T15:16:32.020Z,97620.06
2023-05-17T15:19:01.038Z,97617.75
2023-05-17T15:21:30.726Z,97610.13
2023-05-17T15:23:59.436Z,97623.38
2023-05-17T15:26:27.690Z,97620.63
2023-05-17T15:28:55.878Z,97621.41
2023-05-17T15:31:24.481Z,97543.19
2023-05-17T15:33:53.092Z,97606.59
2023-05-17T15:36:21.271Z,97621.00
2023-05-17T15:38:50.934Z,97626.75
2023-05-17T15:41:22.466Z,97604.28
2023-05-17T15:43:50.703Z,97601.44
2023-05-17T15:46:19.679Z,97600.16
2023-05-17T15:48:48.012Z,97619.31
2023-05-17T15:51:16.331Z,97582.41
2023-05-17T15:53:44.549Z,97608.78
2023-05-17T15:56:16.069Z,97566.53
2023-05-17T15:58:44.471Z,97614.09
2023-05-17T16:01:12.807Z,97642.88
2023-05-17T16:03:41.018Z,97643.06
2023-05-17T16:06:09.411Z,97587.09
2023-05-17T16:08:37.652Z,97642.13
2023-05-17T16:11:05.914Z,97631.66
2023-05-17T16:13:35.586Z,97650.63
2023-05-17T16:16:04.646Z,97646.00
2023-05-17T16:18:33.155Z,97644.09
2023-05-17T16:21:03.916Z,97665.75
2023-05-17T16:23:32.857Z,97663.78
2023-05-17T16:26:01.654Z,97655.81
2023-05-17T16:28:31.895Z,97667.84
2023-05-17T16:31:02.603Z,97591.53
2023-05-17T16:33:30.932Z,97681.31
2023-05-17T16:35:59.695Z,97679.63
2023-05-17T16:38:27.896Z,97678.88
2023-05-17T16:40:56.566Z,97665.72
2023-05-17T16:43:24.876Z,97677.00
2023-05-17T16:45:53.234Z,97685.63
2023-05-17T16:48:22.897Z,97691.50
2023-05-17T16:50:51.597Z,97696.13
2023-05-17T16:53:20.220Z,97696.28
2023-05-17T16:55:48.513Z,97700.56
2023-05-17T16:58:16.815Z,97711.66
2023-05-17T17:00:45.051Z,97716.75
2023-05-17T17:03:13.683Z,97699.47
2023-05-17T17:05:43.438Z,97712.94
2023-05-17T17:08:11.673Z,97706.09
2023-05-17T17:10:39.962Z,97715.44
2023-05-17T17:13:08.171Z,97707.50
2023-05-17T17:15:36.320Z,97713.72
2023-05-17T17:18:04.701Z,97713.66
2023-05-17T17:20:33.364Z,97721.44
2023-05-17T17:23:03.663Z,97718.00
2023-05-17T17:25:32.019Z,97724.16
2023-05-17T17:28:00.347Z,97737.47
2023-05-17T17:30:28.700Z,97702.25
2023-05-17T17:32:57.270Z,97735.53
2023-05-17T17:35:25.599Z,97734.94
2023-05-17T17:37:54.396Z,97742.84
2023-05-17T17:40:23.986Z,97748.81
2023-05-17T17:42:52.316Z,97754.59
2023-05-17T17:45:20.754Z,97751.19
2023-05-17T17:47:48.883Z,97752.09
2023-05-17T17:50:17.177Z,97745.97
2023-05-17T17:52:45.391Z,97746.16
2023-05-17T17:55:13.789Z,97748.72
2023-05-17T17:57:43.416Z,97748.66
2023-05-17T18:00:13.184Z,97677.94
2023-05-17T18:02:41.408Z,97731.97
2023-05-17T18:05:10.743Z,97744.97
2023-05-17T18:07:39.047Z,97735.50
2023-05-17T18:10:08.450Z,97734.47
2023-05-17T18:12:36.729Z,97733.63
2023-05-17T18:15:07.184Z,97724.97
2023-05-17T18:17:35.384Z,97731.00
2023-05-17T18:20:03.872Z,97732.75
2023-05-17T18:22:32.299Z,97746.06
2023-05-17T18:25:00.810Z,97749.41
2023-05-17T18:27:28.974Z,97726.84
2023-05-17T18:29:57.150Z,97735.31
2023-05-17T18:32:27.214Z,97747.81
2023-05-17T18:34:55.556Z,97748.81
2023-05-17T18:37:24.221Z,97759.31
2023-05-17T18:39:54.298Z,97749.81
2023-05-17T18:42:25.129Z,97761.94
2023-05-17T18:44:54.288Z,97766.34
2023-05-17T18:47:23.747Z,97770.88
2023-05-17T18:49:53.861Z,97776.06
2023-05-17T18:52:22.648Z,97790.16
2023-05-17T18:54:50.908Z,97765.09
2023-05-17T18:57:19.156Z,97790.84
2023-05-17T18:59:48.331Z,97791.47
2023-05-17T19:02:17.846Z,97795.31
2023-05-17T19:04:46.732Z,97809.13
2023-05-17T19:07:17.840Z,97818.53
2023-05-17T19:09:46.500Z,97820.31
2023-05-17T19:12:14.909Z,97819.25
2023-05-17T19:14:43.636Z,97799.34
2023-05-17T19:17:11.977Z,97807.00
2023-05-17T19:19:40.447Z,97818.28
2023-05-17T19:22:11.443Z,97824.50
2023-05-17T19:24:42.247Z,97830.50
2023-05-17T19:27:17.080Z,97832.19
2023-05-17T19:29:45.542Z,97815.72
2023-05-17T19:32:14.391Z,97835.47
2023-05-17T19:34:43.341Z,97836.31
2023-05-17T19:37:11.757Z,97843.44
2023-05-17T19:39:42.257Z,97848.66
2023-05-17T19:42:11.429Z,97844.34
2023-05-17T19:44:41.798Z,97845.03
2023-05-17T19:47:10.146Z,97843.44
2023-05-17T19:49:39.193Z,97834.00
2023-05-17T19:52:08.439Z,97848.69
2023-05-17T19:54:36.888Z,97847.81
2023-05-17T19:57:08.255Z,97854.84
2023-05-17T19:59:37.116Z,97855.53
2023-05-17T20:02:06.715Z,97854.56
2023-05-17T20:04:35.647Z,97859.00
2023-05-17T20:07:04.101Z,97854.84
2023-05-17T20:09:32.485Z,97860.22
2023-05-17T20:12:01.497Z,97860.25
2023-05-17T20:14:32.402Z,97861.81
2023-05-17T20:17:01.156Z,97868.69
2023-05-17T20:19:33.115Z,97873.72
2023-05-17T20:22:02.062Z,97870.34
2023-05-17T20:24:30.784Z,97867.63
2023-05-17T20:27:00.214Z,97874.53
2023-05-17T20:29:30.308Z,97863.22
2023-05-17T20:31:58.986Z,97857.13
2023-05-17T20:34:28.683Z,97861.56
2023-05-17T20:36:57.766Z,97868.63
2023-05-17T20:39:28.114Z,97879.72
2023-05-17T20:41:57.147Z,97877.91
2023-05-17T20:44:26.069Z,97878.88
2023-05-17T20:46:56.750Z,97882.31
2023-05-17T20:49:25.041Z,97875.50
2023-05-17T20:51:53.282Z,97884.00
2023-05-17T20:54:21.380Z,97888.34
2023-05-17T20:56:49.614Z,97891.00
2023-05-17T20:59:20.938Z,97885.06
2023-05-17T21:01:50.308Z,97890.06
2023-05-17T21:04:20.074Z,97890.84
2023-05-17T21:06:48.528Z,97885.03
2023-05-17T21:09:19.076Z,97885.84
2023-05-17T21:11:47.300Z,97872.06
2023-05-17T21:14:15.726Z,97857.41
2023-05-17T21:16:44.031Z,97888.28
2023-05-17T21:19:12.524Z,97889.16
2023-05-17T21:21:42.341Z,97891.00
2023-05-17T21:24:10.869Z,97891.72
2023-05-17T21:26:40.817Z,97890.84
2023-05-17T21:29:09.688Z,97900.34
2023-05-17T21:31:38.421Z,97899.59
2023-05-17T21:34:06.747Z,97902.31
2023-05-17T21:36:35.128Z,97893.59
2023-05-17T21:39:04.971Z,97890.91
2023-05-17T21:41:33.282Z,97898.72
2023-05-17T21:44:01.646Z,97684.47
2023-05-17T21:46:30.000Z,97893.50
2023-05-17T21:48:58.419Z,97891.78
2023-05-17T21:51:26.862Z,97898.72
2023-05-17T21:53:55.203Z,97890.09
2023-05-17T21:56:25.150Z,97900.50
2023-05-17T21:58:54.908Z,97898.78
2023-05-17T22:01:24.354Z,97695.69
2023-05-17T22:03:53.758Z,97849.84
2023-05-17T22:06:22.517Z,97890.28
2023-05-17T22:08:50.865Z,97892.72
2023-05-17T22:11:22.942Z,97884.94
2023-05-17T22:13:53.142Z,97890.31
2023-05-17T22:16:24.236Z,97884.13
2023-05-17T22:18:53.670Z,97855.78
2023-05-17T22:21:23.115Z,97882.41
2023-05-17T22:23:52.564Z,97888.63
2023-05-17T22:26:21.987Z,97892.09
2023-05-17T22:28:50.779Z,97885.31
2023-05-17T22:31:20.576Z,97891.50
2023-05-17T22:33:49.279Z,97898.31
2023-05-17T22:36:19.250Z,97901.84
2023-05-17T22:38:47.818Z,97900.94
2023-05-17T22:41:16.081Z,97899.00
2023-05-17T22:43:44.351Z,97894.63
2023-05-17T22:46:12.695Z,97885.31
2023-05-17T22:48:42.423Z,97882.78
2023-05-17T22:51:12.821Z,97884.38
2023-05-17T22:53:41.187Z,97878.34
2023-05-17T22:56:09.384Z,97904.25
2023-05-17T22:58:37.762Z,97894.03
2023-05-17T23:01:06.166Z,97887.22
2023-05-17T23:03:34.553Z,97891.34
2023-05-17T23:06:05.348Z,97884.38
2023-05-17T23:08:34.084Z,97881.75
2023-05-17T23:11:05.049Z,97892.97
2023-05-17T23:13:33.250Z,97887.66
2023-05-17T23:16:01.490Z,97885.09
2023-05-17T23:18:29.654Z,97872.75
2023-05-17T23:20:59.279Z,97883.09
2023-05-17T23:23:30.078Z,97883.03
2023-05-17T23:25:58.941Z,97875.22
2023-05-17T23:28:27.172Z,97871.81
2023-05-17T23:30:55.691Z,97865.63
2023-05-17T23:33:23.983Z,97861.41
2023-05-17T23:35:53.708Z,97870.91
2023-05-17T23:38:22.450Z,97861.28
2023-05-17T23:40:52.256Z,97866.53
2023-05-17T23:43:20.480Z,97851.66
2023-05-17T23:45:48.753Z,97856.06
2023-05-17T23:48:20.911Z,97856.94
2023-05-17T23:50:49.197Z,97850.13
2023-05-17T23:53:18.756Z,97864.03
2023-05-17T23:55:47.380Z,97857.84
2023-05-17T23:58:17.048Z,97856.22
